createdAt,value
2019-03-15T00:00:37.322Z,995.28
2019-03-15T00:01:42.832Z,995.30
2019-03-15T00:02:48.359Z,995.32
2019-03-15T00:03:53.868Z,995.37
2019-03-15T00:04:59.364Z,995.41
2019-03-15T00:06:04.869Z,995.40
2019-03-15T00:07:10.376Z,995.40
2019-03-15T00:08:15.880Z,995.36
2019-03-15T00:09:22.114Z,995.37
2019-03-15T00:10:26.905Z,995.36
2019-03-15T00:11:32.413Z,995.38
2019-03-15T00:12:37.917Z,995.42
2019-03-15T00:13:43.430Z,995.39
2019-03-15T00:14:48.931Z,995.40
2019-03-15T00:15:54.458Z,995.42
2019-03-15T00:16:59.954Z,995.40
2019-03-15T00:18:05.467Z,995.40
2019-03-15T00:19:10.976Z,995.44
2019-03-15T00:20:16.475Z,995.46
2019-03-15T00:21:21.998Z,995.45
2019-03-15T00:22:27.493Z,995.39
2019-03-15T00:23:33.002Z,995.41
2019-03-15T00:24:38.511Z,995.40
2019-03-15T00:25:44.012Z,995.44
2019-03-15T00:26:49.538Z,995.55
2019-03-15T00:27:55.047Z,995.50
2019-03-15T00:29:00.552Z,995.52
2019-03-15T00:30:06.187Z,995.54
2019-03-15T00:31:11.576Z,995.51
2019-03-15T00:32:17.072Z,995.54
2019-03-15T00:33:22.582Z,995.54
2019-03-15T00:34:28.095Z,995.53
2019-03-15T00:35:33.604Z,995.54
2019-03-15T00:36:39.112Z,995.53
2019-03-15T00:37:44.619Z,995.57
2019-03-15T00:38:50.124Z,995.52
2019-03-15T00:39:55.632Z,995.49
2019-03-15T00:41:01.144Z,995.53
2019-03-15T00:42:06.652Z,995.47
2019-03-15T00:43:12.159Z,995.52
2019-03-15T00:44:17.670Z,995.56
2019-03-15T00:45:23.183Z,995.49
2019-03-15T00:46:28.692Z,995.52
2019-03-15T00:47:34.196Z,995.54
2019-03-15T00:48:39.711Z,995.62
2019-03-15T00:49:45.208Z,995.58
2019-03-15T00:50:50.726Z,995.62
2019-03-15T00:51:56.238Z,995.58
2019-03-15T00:53:01.745Z,995.58
2019-03-15T00:54:07.255Z,995.60
2019-03-15T00:55:12.765Z,995.58
2019-03-15T00:56:18.267Z,995.54
2019-03-15T00:57:23.775Z,995.53
2019-03-15T00:58:29.288Z,995.57
2019-03-15T00:59:34.799Z,995.57
2019-03-15T01:00:40.301Z,995.60
2019-03-15T01:01:45.854Z,995.65
2019-03-15T01:02:51.317Z,995.62
2019-03-15T01:03:56.826Z,995.60
2019-03-15T01:05:02.332Z,995.64
2019-03-15T01:06:07.840Z,995.58
2019-03-15T01:07:13.347Z,995.59
2019-03-15T01:08:18.864Z,995.54
2019-03-15T01:09:24.377Z,995.59
2019-03-15T01:10:29.877Z,995.53
2019-03-15T01:11:35.388Z,995.59
2019-03-15T01:12:40.898Z,995.59
2019-03-15T01:13:46.400Z,995.54
2019-03-15T01:14:51.917Z,995.49
2019-03-15T01:15:57.427Z,995.45
2019-03-15T01:17:02.926Z,995.49
2019-03-15T01:18:08.445Z,995.49
2019-03-15T01:19:13.952Z,995.49
2019-03-15T01:20:19.462Z,995.41
2019-03-15T01:21:24.964Z,995.42
2019-03-15T01:22:30.470Z,995.37
2019-03-15T01:23:35.992Z,995.39
2019-03-15T01:24:41.487Z,995.38
2019-03-15T01:25:46.998Z,995.40
2019-03-15T01:26:52.508Z,995.33
2019-03-15T01:27:58.123Z,995.38
2019-03-15T01:29:03.520Z,995.38
2019-03-15T01:30:09.033Z,995.40
2019-03-15T01:31:14.541Z,995.44
2019-03-15T01:32:20.050Z,995.37
2019-03-15T01:33:25.568Z,995.43
2019-03-15T01:34:31.064Z,995.44
2019-03-15T01:35:36.575Z,995.41
2019-03-15T01:36:42.079Z,995.48
2019-03-15T01:37:47.589Z,995.41
2019-03-15T01:38:53.111Z,995.43
2019-03-15T01:39:58.607Z,995.45
2019-03-15T01:41:04.344Z,995.45
2019-03-15T01:42:09.635Z,995.49
2019-03-15T01:43:15.130Z,995.47
2019-03-15T01:44:20.640Z,995.55
2019-03-15T01:45:26.131Z,995.56
2019-03-15T01:46:31.672Z,995.55
2019-03-15T01:47:37.168Z,995.57
2019-03-15T01:48:42.788Z,995.51
2019-03-15T01:49:48.209Z,995.50
2019-03-15T01:50:53.694Z,995.51
2019-03-15T01:51:59.198Z,995.46
2019-03-15T01:53:04.872Z,995.52
2019-03-15T01:54:10.227Z,995.48
2019-03-15T01:55:15.723Z,995.46
2019-03-15T01:56:21.256Z,995.48
2019-03-15T01:57:26.745Z,995.50
2019-03-15T01:58:32.255Z,995.47
2019-03-15T01:59:37.762Z,995.46
2019-03-15T02:00:43.274Z,995.48
2019-03-15T02:01:48.785Z,995.51
2019-03-15T02:02:54.289Z,995.40
2019-03-15T02:03:59.796Z,995.41
2019-03-15T02:05:05.293Z,995.40
2019-03-15T02:06:10.816Z,995.40
2019-03-15T02:07:16.319Z,995.38
2019-03-15T02:08:21.829Z,995.42
2019-03-15T02:09:27.338Z,995.43
2019-03-15T02:10:32.846Z,995.42
2019-03-15T02:11:38.358Z,995.42
2019-03-15T02:12:43.866Z,995.39
2019-03-15T02:13:49.371Z,995.42
2019-03-15T02:14:54.889Z,995.43
2019-03-15T02:16:00.399Z,995.40
2019-03-15T02:17:05.902Z,995.37
2019-03-15T02:18:11.417Z,995.34
2019-03-15T02:19:16.920Z,995.32
2019-03-15T02:20:22.422Z,995.37
2019-03-15T02:21:27.935Z,995.34
2019-03-15T02:22:33.605Z,995.32
2019-03-15T02:23:38.948Z,995.39
2019-03-15T02:24:44.455Z,995.39
2019-03-15T02:25:49.965Z,995.35
2019-03-15T02:26:55.477Z,995.39
2019-03-15T02:28:00.986Z,995.37
2019-03-15T02:29:06.515Z,995.38
2019-03-15T02:30:12.002Z,995.38
2019-03-15T02:31:17.509Z,995.35
2019-03-15T02:32:23.022Z,995.37
2019-03-15T02:33:28.522Z,995.36
2019-03-15T02:34:34.032Z,995.31
2019-03-15T02:35:39.585Z,995.36
2019-03-15T02:36:45.057Z,995.29
2019-03-15T02:37:50.561Z,995.32
2019-03-15T02:38:56.071Z,995.29
2019-03-15T02:40:01.577Z,995.30
2019-03-15T02:41:07.088Z,995.41
2019-03-15T02:42:12.591Z,995.39
2019-03-15T02:43:19.115Z,995.35
2019-03-15T02:44:23.608Z,995.36
2019-03-15T02:45:29.120Z,995.34
2019-03-15T02:46:34.638Z,995.34
2019-03-15T02:47:40.141Z,995.29
2019-03-15T02:48:45.645Z,995.33
2019-03-15T02:49:51.165Z,995.39
2019-03-15T02:50:56.670Z,995.39
2019-03-15T02:52:02.177Z,995.43
2019-03-15T02:53:08.988Z,995.44
2019-03-15T02:54:13.191Z,995.42
2019-03-15T02:55:18.700Z,995.38
2019-03-15T02:56:24.206Z,995.42
2019-03-15T02:57:29.714Z,995.35
2019-03-15T02:58:35.228Z,995.37
2019-03-15T02:59:40.763Z,995.39
2019-03-15T03:00:46.253Z,995.41
2019-03-15T03:01:51.756Z,995.46
2019-03-15T03:02:57.262Z,995.43
2019-03-15T03:04:02.778Z,995.44
2019-03-15T03:05:08.297Z,995.44
2019-03-15T03:06:13.784Z,995.44
2019-03-15T03:07:19.292Z,995.46
2019-03-15T03:08:24.799Z,995.44
2019-03-15T03:09:30.308Z,995.45
2019-03-15T03:10:35.830Z,995.44
2019-03-15T03:11:41.325Z,995.47
2019-03-15T03:12:46.838Z,995.46
2019-03-15T03:13:52.348Z,995.46
2019-03-15T03:14:58.457Z,995.50
2019-03-15T03:16:03.366Z,995.48
2019-03-15T03:17:08.869Z,995.48
2019-03-15T03:18:14.385Z,995.44
2019-03-15T03:19:19.898Z,995.41
2019-03-15T03:20:25.398Z,995.36
2019-03-15T03:21:30.905Z,995.34
2019-03-15T03:22:36.666Z,995.32
2019-03-15T03:23:41.918Z,995.30
2019-03-15T03:24:47.425Z,995.36
2019-03-15T03:25:52.939Z,995.35
2019-03-15T03:26:58.441Z,995.39
2019-03-15T03:28:03.961Z,995.40
2019-03-15T03:29:09.459Z,995.38
2019-03-15T03:30:16.496Z,995.36
2019-03-15T03:31:20.477Z,995.32
2019-03-15T03:32:25.989Z,995.37
2019-03-15T03:33:31.499Z,995.37
2019-03-15T03:34:37.266Z,995.30
2019-03-15T03:35:42.514Z,995.31
2019-03-15T03:36:48.024Z,995.29
2019-03-15T03:37:53.539Z,995.29
2019-03-15T03:38:59.039Z,995.32
2019-03-15T03:40:04.549Z,995.28
2019-03-15T03:41:10.057Z,995.22
2019-03-15T03:42:15.567Z,995.22
2019-03-15T03:43:21.078Z,995.22
2019-03-15T03:44:26.589Z,995.22
2019-03-15T03:45:32.096Z,995.21
2019-03-15T03:46:37.601Z,995.19
2019-03-15T03:47:43.509Z,995.16
2019-03-15T03:48:48.620Z,995.19
2019-03-15T03:49:54.128Z,995.22
2019-03-15T03:51:00.246Z,995.21
2019-03-15T03:52:05.143Z,995.23
2019-03-15T03:53:10.650Z,995.19
2019-03-15T03:54:16.158Z,995.18
2019-03-15T03:55:21.669Z,995.21
2019-03-15T03:56:27.174Z,995.14
2019-03-15T03:57:32.845Z,995.13
2019-03-15T03:58:38.192Z,995.12
2019-03-15T03:59:43.707Z,995.11
2019-03-15T04:00:49.208Z,995.08
2019-03-15T04:01:54.721Z,995.11
2019-03-15T04:03:00.229Z,995.10
2019-03-15T04:04:05.738Z,995.12
2019-03-15T04:05:11.243Z,995.09
2019-03-15T04:06:16.753Z,995.10
2019-03-15T04:07:22.263Z,995.11
2019-03-15T04:08:27.767Z,995.05
2019-03-15T04:09:33.276Z,994.99
2019-03-15T04:10:38.788Z,994.95
2019-03-15T04:11:54.920Z,994.93
2019-03-15T04:12:49.800Z,994.91
2019-03-15T04:13:55.309Z,994.90
2019-03-15T04:15:00.818Z,994.88
2019-03-15T04:16:06.335Z,994.87
2019-03-15T04:17:11.847Z,994.85
2019-03-15T04:18:17.359Z,994.84
2019-03-15T04:19:22.856Z,994.89
2019-03-15T04:20:28.360Z,994.86
2019-03-15T04:21:33.872Z,994.90
2019-03-15T04:22:39.377Z,994.84
2019-03-15T04:23:44.882Z,994.88
2019-03-15T04:24:50.392Z,994.92
2019-03-15T04:25:55.899Z,994.91
2019-03-15T04:27:01.407Z,994.95
2019-03-15T04:28:06.920Z,994.90
2019-03-15T04:29:12.431Z,994.91
2019-03-15T04:30:17.941Z,994.94
2019-03-15T04:31:23.444Z,994.92
2019-03-15T04:32:28.953Z,994.95
2019-03-15T04:33:34.462Z,994.98
2019-03-15T04:34:39.980Z,995.01
2019-03-15T04:35:45.481Z,995.02
2019-03-15T04:36:50.984Z,995.00
2019-03-15T04:37:56.492Z,994.98
2019-03-15T04:39:02.013Z,994.99
2019-03-15T04:40:07.512Z,995.00
2019-03-15T04:41:13.017Z,995.02
2019-03-15T04:42:18.527Z,995.02
2019-03-15T04:43:24.038Z,995.02
2019-03-15T04:44:29.543Z,994.99
2019-03-15T04:45:35.055Z,994.94
2019-03-15T04:46:40.569Z,994.91
2019-03-15T04:47:46.073Z,994.88
2019-03-15T04:48:51.580Z,994.89
2019-03-15T04:49:57.091Z,994.88
2019-03-15T04:51:02.600Z,994.84
2019-03-15T04:52:08.108Z,994.81
2019-03-15T04:53:13.615Z,994.83
2019-03-15T04:54:19.119Z,994.82
2019-03-15T04:55:24.633Z,994.82
2019-03-15T04:56:30.143Z,994.83
2019-03-15T04:57:35.646Z,994.87
2019-03-15T04:58:41.157Z,994.83
2019-03-15T04:59:46.668Z,994.88
2019-03-15T05:00:52.173Z,994.91
2019-03-15T05:01:57.683Z,994.89
2019-03-15T05:03:03.191Z,994.84
2019-03-15T05:04:08.699Z,994.84
2019-03-15T05:05:14.204Z,994.81
2019-03-15T05:06:19.717Z,994.81
2019-03-15T05:07:25.232Z,994.85
2019-03-15T05:08:30.732Z,994.88
2019-03-15T05:09:36.237Z,994.91
2019-03-15T05:10:41.745Z,994.88
2019-03-15T05:11:47.254Z,994.91
2019-03-15T05:12:52.766Z,994.88
2019-03-15T05:13:59.058Z,994.86
2019-03-15T05:15:03.782Z,994.81
2019-03-15T05:16:09.294Z,994.78
2019-03-15T05:17:14.800Z,994.73
2019-03-15T05:18:20.316Z,994.70
2019-03-15T05:19:25.821Z,994.72
2019-03-15T05:20:31.326Z,994.68
2019-03-15T05:21:36.837Z,994.69
2019-03-15T05:22:42.334Z,994.61
2019-03-15T05:23:47.846Z,994.59
2019-03-15T05:24:53.360Z,994.60
2019-03-15T05:25:58.868Z,994.58
2019-03-15T05:27:04.373Z,994.53
2019-03-15T05:28:09.885Z,994.52
2019-03-15T05:29:15.392Z,994.49
2019-03-15T05:30:20.904Z,994.46
2019-03-15T05:31:26.411Z,994.42
2019-03-15T05:32:31.919Z,994.40
2019-03-15T05:33:37.440Z,994.37
2019-03-15T05:34:42.943Z,994.41
2019-03-15T05:35:48.458Z,994.33
2019-03-15T05:36:53.949Z,994.35
2019-03-15T05:37:59.452Z,994.32
2019-03-15T05:39:04.970Z,994.36
2019-03-15T05:40:10.483Z,994.38
2019-03-15T05:41:15.984Z,994.33
2019-03-15T05:42:21.499Z,994.38
2019-03-15T05:43:26.999Z,994.32
2019-03-15T05:44:32.514Z,994.31
2019-03-15T05:45:38.068Z,994.34
2019-03-15T05:46:43.534Z,994.32
2019-03-15T05:47:49.037Z,994.34
2019-03-15T05:48:54.541Z,994.32
2019-03-15T05:50:00.054Z,994.27
2019-03-15T05:51:05.571Z,994.25
2019-03-15T05:52:11.068Z,994.27
2019-03-15T05:53:16.591Z,994.24
2019-03-15T05:54:22.087Z,994.19
2019-03-15T05:55:27.593Z,994.20
2019-03-15T05:56:33.101Z,994.18
2019-03-15T05:57:38.608Z,994.06
2019-03-15T05:58:44.126Z,994.10
2019-03-15T05:59:49.630Z,994.06
2019-03-15T06:00:55.139Z,994.07
2019-03-15T06:02:00.646Z,994.11
2019-03-15T06:03:06.165Z,994.12
2019-03-15T06:04:11.661Z,994.08
2019-03-15T06:05:17.177Z,994.09
2019-03-15T06:06:22.677Z,994.05
2019-03-15T06:07:28.190Z,994.05
2019-03-15T06:08:33.696Z,994.03
2019-03-15T06:09:39.203Z,994.00
2019-03-15T06:10:44.709Z,994.04
2019-03-15T06:11:50.220Z,994.08
2019-03-15T06:12:55.732Z,994.07
2019-03-15T06:14:01.236Z,994.08
2019-03-15T06:15:06.760Z,994.09
2019-03-15T06:16:12.296Z,994.05
2019-03-15T06:17:17.769Z,994.07
2019-03-15T06:18:23.277Z,994.04
2019-03-15T06:19:28.783Z,994.00
2019-03-15T06:20:34.287Z,993.98
2019-03-15T06:21:39.795Z,993.95
2019-03-15T06:22:45.303Z,993.87
2019-03-15T06:23:50.813Z,993.93
2019-03-15T06:24:56.321Z,993.89
2019-03-15T06:26:01.830Z,993.84
2019-03-15T06:27:07.347Z,993.84
2019-03-15T06:28:12.847Z,993.89
2019-03-15T06:29:18.354Z,993.88
2019-03-15T06:30:23.862Z,993.83
2019-03-15T06:31:29.371Z,993.79
2019-03-15T06:32:34.881Z,993.78
2019-03-15T06:33:40.471Z,993.76
2019-03-15T06:34:45.901Z,993.78
2019-03-15T06:35:51.406Z,993.78
2019-03-15T06:36:56.912Z,993.81
2019-03-15T06:38:02.420Z,993.81
2019-03-15T06:39:08.419Z,993.86
2019-03-15T06:40:14.099Z,993.87
2019-03-15T06:41:18.943Z,993.89
2019-03-15T06:42:24.461Z,993.84
2019-03-15T06:43:29.968Z,993.82
2019-03-15T06:44:37.539Z,993.82
2019-03-15T06:45:41.958Z,993.85
2019-03-15T06:46:46.493Z,993.85
2019-03-15T06:47:51.998Z,993.82
2019-03-15T06:48:57.506Z,993.83
2019-03-15T06:50:03.019Z,993.84
2019-03-15T06:51:09.378Z,993.83
2019-03-15T06:52:14.034Z,993.81
2019-03-15T06:53:19.537Z,993.79
2019-03-15T06:54:25.042Z,993.84
2019-03-15T06:55:30.552Z,993.81
2019-03-15T06:56:36.066Z,993.83
2019-03-15T06:57:41.566Z,993.85
2019-03-15T06:58:47.075Z,993.84
2019-03-15T06:59:52.597Z,993.80
2019-03-15T07:00:58.113Z,993.87
2019-03-15T07:02:03.603Z,993.81
2019-03-15T07:03:09.113Z,993.77
2019-03-15T07:04:14.702Z,993.72
2019-03-15T07:05:20.652Z,993.66
2019-03-15T07:06:25.634Z,993.61
2019-03-15T07:07:31.143Z,993.62
2019-03-15T07:08:36.653Z,993.61
2019-03-15T07:09:42.166Z,993.62
2019-03-15T07:10:47.667Z,993.60
2019-03-15T07:11:53.190Z,993.63
2019-03-15T07:12:58.689Z,993.62
2019-03-15T07:14:04.201Z,993.63
2019-03-15T07:15:09.850Z,993.59
2019-03-15T07:16:15.214Z,993.57
2019-03-15T07:17:20.737Z,993.59
2019-03-15T07:18:26.233Z,993.57
2019-03-15T07:19:31.740Z,993.60
2019-03-15T07:20:37.247Z,993.63
2019-03-15T07:21:42.757Z,993.63
2019-03-15T07:22:48.262Z,993.61
2019-03-15T07:23:53.770Z,993.63
2019-03-15T07:24:59.278Z,993.54
2019-03-15T07:26:04.787Z,993.53
2019-03-15T07:27:13.094Z,993.52
2019-03-15T07:28:15.820Z,993.46
2019-03-15T07:29:21.317Z,993.47
2019-03-15T07:30:26.835Z,993.40
2019-03-15T07:31:32.332Z,993.34
2019-03-15T07:32:37.842Z,993.39
2019-03-15T07:33:43.357Z,993.36
2019-03-15T07:34:48.858Z,993.38
2019-03-15T07:35:54.358Z,993.43
2019-03-15T07:36:59.868Z,993.37
2019-03-15T07:38:05.376Z,993.35
2019-03-15T07:39:12.788Z,993.24
2019-03-15T07:40:16.391Z,993.23
2019-03-15T07:41:21.901Z,993.18
2019-03-15T07:42:27.420Z,993.16
2019-03-15T07:43:32.922Z,993.10
2019-03-15T07:44:38.429Z,993.08
2019-03-15T07:45:43.955Z,993.08
2019-03-15T07:46:51.029Z,993.04
2019-03-15T07:47:54.954Z,993.03
2019-03-15T07:49:00.468Z,993.08
2019-03-15T07:50:05.968Z,993.12
2019-03-15T07:51:11.477Z,993.13
2019-03-15T07:52:16.994Z,993.16
2019-03-15T07:53:22.495Z,993.12
2019-03-15T07:54:37.412Z,993.06
2019-03-15T07:55:33.523Z,993.04
2019-03-15T07:56:39.030Z,993.07
2019-03-15T07:57:44.529Z,993.04
2019-03-15T07:58:50.086Z,993.02
2019-03-15T07:59:55.550Z,992.99
2019-03-15T08:01:01.059Z,992.96
2019-03-15T08:02:06.564Z,992.92
2019-03-15T08:03:12.173Z,992.92
2019-03-15T08:04:17.811Z,992.90
2019-03-15T08:05:23.093Z,992.83
2019-03-15T08:06:34.760Z,992.84
2019-03-15T08:07:36.985Z,992.85
2019-03-15T08:08:39.645Z,992.81
2019-03-15T08:09:45.133Z,992.78
2019-03-15T08:10:50.636Z,992.74
2019-03-15T08:11:56.149Z,992.75
2019-03-15T08:13:01.654Z,992.76
2019-03-15T08:14:07.154Z,992.72
2019-03-15T08:15:12.666Z,992.73
2019-03-15T08:16:18.182Z,992.69
2019-03-15T08:17:23.684Z,992.64
2019-03-15T08:18:29.193Z,992.62
2019-03-15T08:19:34.700Z,992.62
2019-03-15T08:20:40.204Z,992.58
2019-03-15T08:21:45.715Z,992.56
2019-03-15T08:22:51.226Z,992.50
2019-03-15T08:23:56.750Z,992.49
2019-03-15T08:25:02.245Z,992.51
2019-03-15T08:26:07.756Z,992.55
2019-03-15T08:27:16.037Z,992.57
2019-03-15T08:28:18.767Z,992.53
2019-03-15T08:29:24.287Z,992.53
2019-03-15T08:30:29.788Z,992.50
2019-03-15T08:31:35.310Z,992.48
2019-03-15T08:32:43.301Z,992.52
2019-03-15T08:33:46.315Z,992.52
2019-03-15T08:34:51.827Z,992.51
2019-03-15T08:35:57.327Z,992.53
2019-03-15T08:37:02.845Z,992.52
2019-03-15T08:38:08.354Z,992.47
2019-03-15T08:39:13.856Z,992.50
2019-03-15T08:40:19.361Z,992.45
2019-03-15T08:41:24.869Z,992.35
2019-03-15T08:42:30.383Z,992.33
2019-03-15T08:43:35.890Z,992.39
2019-03-15T08:44:41.402Z,992.46
2019-03-15T08:45:46.902Z,992.47
2019-03-15T08:46:52.415Z,992.55
2019-03-15T08:47:57.923Z,992.49
2019-03-15T08:49:03.444Z,992.50
2019-03-15T08:50:08.949Z,992.43
2019-03-15T08:51:14.455Z,992.36
2019-03-15T08:52:19.957Z,992.22
2019-03-15T08:53:25.483Z,992.19
2019-03-15T08:54:30.988Z,992.17
2019-03-15T08:55:39.643Z,992.27
2019-03-15T08:56:41.993Z,992.23
2019-03-15T08:57:47.500Z,992.26
2019-03-15T08:58:53.010Z,992.23
2019-03-15T08:59:58.521Z,992.21
2019-03-15T09:01:04.038Z,992.15
2019-03-15T09:02:09.554Z,992.17
2019-03-15T09:03:27.347Z,992.18
2019-03-15T09:04:21.777Z,992.21
2019-03-15T09:05:26.059Z,992.13
2019-03-15T09:06:31.571Z,992.29
2019-03-15T09:07:37.079Z,992.35
2019-03-15T09:08:42.587Z,992.32
2019-03-15T09:09:48.104Z,992.36
2019-03-15T09:10:53.606Z,992.46
2019-03-15T09:11:59.210Z,992.37
2019-03-15T09:13:04.635Z,992.45
2019-03-15T09:14:10.137Z,992.49
2019-03-15T09:15:15.645Z,992.51
2019-03-15T09:16:21.169Z,992.50
2019-03-15T09:17:26.661Z,992.55
2019-03-15T09:18:32.166Z,992.58
2019-03-15T09:19:37.702Z,992.60
2019-03-15T09:20:43.190Z,992.58
2019-03-15T09:21:48.705Z,992.59
2019-03-15T09:22:54.208Z,992.58
2019-03-15T09:23:59.711Z,992.45
2019-03-15T09:25:18.020Z,992.54
2019-03-15T09:26:10.780Z,992.50
2019-03-15T09:27:16.237Z,992.35
2019-03-15T09:28:21.758Z,992.44
2019-03-15T09:29:27.257Z,992.49
2019-03-15T09:30:32.769Z,992.54
2019-03-15T09:31:47.792Z,992.36
2019-03-15T09:32:43.786Z,992.42
2019-03-15T09:33:49.298Z,992.40
2019-03-15T09:34:55.845Z,992.37
2019-03-15T09:36:00.308Z,992.40
2019-03-15T09:37:05.821Z,992.39
2019-03-15T09:38:11.343Z,992.42
2019-03-15T09:39:16.844Z,992.40
2019-03-15T09:40:25.444Z,992.39
2019-03-15T09:41:33.329Z,992.41
2019-03-15T09:42:33.368Z,992.36
2019-03-15T09:43:38.964Z,992.28
2019-03-15T09:44:44.400Z,992.25
2019-03-15T09:45:49.899Z,992.23
2019-03-15T09:46:55.414Z,992.18
2019-03-15T09:48:00.922Z,992.17
2019-03-15T09:49:06.438Z,992.18
2019-03-15T09:50:23.160Z,992.19
2019-03-15T09:51:17.440Z,992.30
2019-03-15T09:52:22.960Z,992.16
2019-03-15T09:53:28.464Z,992.16
2019-03-15T09:54:33.976Z,992.28
2019-03-15T09:55:39.481Z,992.23
2019-03-15T09:56:44.986Z,992.26
2019-03-15T09:57:50.501Z,992.32
2019-03-15T09:58:56.014Z,992.28
2019-03-15T10:00:01.523Z,992.33
2019-03-15T10:01:07.802Z,992.26
2019-03-15T10:02:12.542Z,992.31
2019-03-15T10:03:22.460Z,992.23
2019-03-15T10:04:23.552Z,992.23
2019-03-15T10:05:29.079Z,992.21
2019-03-15T10:06:34.574Z,992.18
2019-03-15T10:07:43.083Z,992.14
2019-03-15T10:08:45.597Z,992.25
2019-03-15T10:09:51.107Z,992.20
2019-03-15T10:10:56.615Z,992.27
2019-03-15T10:12:02.152Z,992.24
2019-03-15T10:13:07.633Z,992.16
2019-03-15T10:14:13.145Z,992.14
2019-03-15T10:15:18.660Z,992.22
2019-03-15T10:16:24.169Z,992.18
2019-03-15T10:17:29.676Z,992.22
2019-03-15T10:18:35.197Z,992.25
2019-03-15T10:19:40.699Z,992.33
2019-03-15T10:20:46.209Z,992.29
2019-03-15T10:21:51.708Z,992.23
2019-03-15T10:23:05.998Z,992.24
2019-03-15T10:24:02.732Z,992.27
2019-03-15T10:25:08.245Z,992.25
2019-03-15T10:26:15.140Z,992.25
2019-03-15T10:27:19.265Z,992.22
2019-03-15T10:28:24.779Z,992.26
2019-03-15T10:29:30.278Z,992.19
2019-03-15T10:30:35.793Z,992.15
2019-03-15T10:31:41.301Z,992.28
2019-03-15T10:32:46.818Z,992.29
2019-03-15T10:33:52.317Z,992.26
2019-03-15T10:34:57.827Z,992.33
2019-03-15T10:36:03.335Z,992.33
2019-03-15T10:37:08.848Z,992.32
2019-03-15T10:38:16.687Z,992.30
2019-03-15T10:39:19.874Z,992.37
2019-03-15T10:40:25.381Z,992.30
2019-03-15T10:41:30.884Z,992.29
2019-03-15T10:42:36.397Z,992.21
2019-03-15T10:43:41.918Z,992.25
2019-03-15T10:44:47.438Z,992.25
2019-03-15T10:45:52.929Z,992.23
2019-03-15T10:46:58.447Z,992.33
2019-03-15T10:48:03.950Z,992.32
2019-03-15T10:49:09.456Z,992.31
2019-03-15T10:50:14.979Z,992.33
2019-03-15T10:51:20.484Z,992.26
2019-03-15T10:52:25.996Z,992.28
2019-03-15T10:53:31.500Z,992.35
2019-03-15T10:54:37.008Z,992.31
2019-03-15T10:55:42.525Z,992.34
2019-03-15T10:56:48.038Z,992.31
2019-03-15T10:57:53.555Z,992.36
2019-03-15T10:58:59.047Z,992.36
2019-03-15T11:00:04.573Z,992.35
2019-03-15T11:01:10.082Z,992.40
2019-03-15T11:02:15.600Z,992.32
2019-03-15T11:03:21.102Z,992.38
2019-03-15T11:04:26.611Z,992.34
2019-03-15T11:05:32.110Z,992.45
2019-03-15T11:06:37.630Z,992.36
2019-03-15T11:07:43.132Z,992.39
2019-03-15T11:08:48.655Z,992.32
2019-03-15T11:09:54.156Z,992.37
2019-03-15T11:10:59.670Z,992.31
2019-03-15T11:12:05.198Z,992.48
2019-03-15T11:13:10.695Z,992.41
2019-03-15T11:14:16.195Z,992.29
2019-03-15T11:15:21.722Z,992.40
2019-03-15T11:16:27.235Z,992.52
2019-03-15T11:17:32.745Z,992.38
2019-03-15T11:18:38.248Z,992.43
2019-03-15T11:19:43.753Z,992.39
2019-03-15T11:20:49.261Z,992.47
2019-03-15T11:21:54.769Z,992.50
2019-03-15T11:23:00.285Z,992.47
2019-03-15T11:24:05.794Z,992.55
2019-03-15T11:25:11.304Z,992.49
2019-03-15T11:26:16.813Z,992.55
2019-03-15T11:27:22.326Z,992.47
2019-03-15T11:28:27.832Z,992.50
2019-03-15T11:29:33.349Z,992.55
2019-03-15T11:30:38.870Z,992.54
2019-03-15T11:31:44.468Z,992.54
2019-03-15T11:32:49.878Z,992.50
2019-03-15T11:33:55.387Z,992.63
2019-03-15T11:35:00.901Z,992.57
2019-03-15T11:36:06.431Z,992.62
2019-03-15T11:37:11.929Z,992.69
2019-03-15T11:38:17.432Z,992.67
2019-03-15T11:39:22.945Z,992.68
2019-03-15T11:40:28.457Z,992.69
2019-03-15T11:41:33.975Z,992.70
2019-03-15T11:42:39.478Z,992.72
2019-03-15T11:43:44.991Z,992.62
2019-03-15T11:44:50.498Z,992.67
2019-03-15T11:45:56.020Z,992.73
2019-03-15T11:47:01.543Z,992.67
2019-03-15T11:48:09.017Z,992.56
2019-03-15T11:49:12.544Z,992.65
2019-03-15T11:50:18.049Z,992.69
2019-03-15T11:51:23.562Z,992.62
2019-03-15T11:52:29.071Z,992.68
2019-03-15T11:53:34.591Z,992.63
2019-03-15T11:54:40.104Z,992.58
2019-03-15T11:55:45.607Z,992.61
2019-03-15T11:56:51.121Z,992.57
2019-03-15T11:57:56.628Z,992.52
2019-03-15T11:59:02.140Z,992.60
2019-03-15T12:00:07.653Z,992.50
2019-03-15T12:01:13.162Z,992.55
2019-03-15T12:02:18.670Z,992.53
2019-03-15T12:03:24.191Z,992.56
2019-03-15T12:04:29.697Z,992.56
2019-03-15T12:05:35.203Z,992.49
2019-03-15T12:06:40.722Z,992.53
2019-03-15T12:07:46.233Z,992.46
2019-03-15T12:08:51.740Z,992.46
2019-03-15T12:09:57.249Z,992.45
2019-03-15T12:11:02.762Z,992.39
2019-03-15T12:12:08.274Z,992.44
2019-03-15T12:13:13.795Z,992.54
2019-03-15T12:14:19.303Z,992.42
2019-03-15T12:15:24.807Z,992.41
2019-03-15T12:16:30.316Z,992.47
2019-03-15T12:17:35.825Z,992.46
2019-03-15T12:18:41.339Z,992.35
2019-03-15T12:19:46.853Z,992.34
2019-03-15T12:20:52.358Z,992.37
2019-03-15T12:22:06.165Z,992.42
2019-03-15T12:23:03.387Z,992.40
2019-03-15T12:24:08.909Z,992.41
2019-03-15T12:25:14.403Z,992.51
2019-03-15T12:26:19.921Z,992.52
2019-03-15T12:27:25.433Z,992.49
2019-03-15T12:28:30.950Z,992.50
2019-03-15T12:29:36.455Z,992.50
2019-03-15T12:30:43.253Z,992.52
2019-03-15T12:31:47.470Z,992.53
2019-03-15T12:32:53.001Z,992.49
2019-03-15T12:33:58.495Z,992.60
2019-03-15T12:35:04.004Z,992.57
2019-03-15T12:36:09.518Z,992.49
2019-03-15T12:37:15.028Z,992.51
2019-03-15T12:38:20.545Z,992.53
2019-03-15T12:39:26.049Z,992.47
2019-03-15T12:40:31.585Z,992.52
2019-03-15T12:41:37.079Z,992.35
2019-03-15T12:42:42.594Z,992.38
2019-03-15T12:43:48.104Z,992.41
2019-03-15T12:44:53.613Z,992.41
2019-03-15T12:45:59.117Z,992.42
2019-03-15T12:47:06.159Z,992.39
2019-03-15T12:48:10.143Z,992.39
2019-03-15T12:49:15.650Z,992.49
2019-03-15T12:50:21.178Z,992.43
2019-03-15T12:51:31.980Z,992.40
2019-03-15T12:52:41.944Z,992.50
2019-03-15T12:53:37.713Z,992.49
2019-03-15T12:54:43.213Z,992.51
2019-03-15T12:55:48.724Z,992.44
2019-03-15T12:56:54.344Z,992.41
2019-03-15T12:57:59.745Z,992.38
2019-03-15T12:59:05.257Z,992.37
2019-03-15T13:00:10.763Z,992.48
2019-03-15T13:01:16.279Z,992.42
2019-03-15T13:02:21.801Z,992.36
2019-03-15T13:03:27.305Z,992.39
2019-03-15T13:04:32.807Z,992.41
2019-03-15T13:05:38.331Z,992.44
2019-03-15T13:06:43.829Z,992.40
2019-03-15T13:07:49.353Z,992.39
2019-03-15T13:08:54.855Z,992.46
2019-03-15T13:10:00.419Z,992.31
2019-03-15T13:11:05.874Z,992.25
2019-03-15T13:12:11.391Z,992.24
2019-03-15T13:13:16.903Z,992.24
2019-03-15T13:14:22.413Z,992.36
2019-03-15T13:15:27.924Z,992.27
2019-03-15T13:16:33.438Z,992.19
2019-03-15T13:17:38.946Z,992.19
2019-03-15T13:18:44.454Z,992.18
2019-03-15T13:19:55.171Z,992.23
2019-03-15T13:20:55.484Z,992.28
2019-03-15T13:22:01.009Z,992.23
2019-03-15T13:23:06.522Z,992.22
2019-03-15T13:24:12.016Z,992.27
2019-03-15T13:25:17.524Z,992.12
2019-03-15T13:26:23.047Z,992.12
2019-03-15T13:27:28.553Z,992.07
2019-03-15T13:28:34.063Z,992.16
2019-03-15T13:29:39.580Z,992.14
2019-03-15T13:30:45.176Z,992.13
2019-03-15T13:31:50.592Z,992.13
2019-03-15T13:32:56.104Z,992.21
2019-03-15T13:34:01.632Z,992.10
2019-03-15T13:35:07.129Z,992.21
2019-03-15T13:36:12.637Z,992.19
2019-03-15T13:37:18.154Z,992.19